< < Back
Terminal Aerodrome Forecast


Current Version              Previous Versions:   1  2  3  4  5  6  7  8  9  

Terminal Aerodrome Forecast

844
FTUS42 KGSP 221728
TAFGSP
TAF
KGSP 221728Z 2218/2318 VRB04KT P6SM SKC
     FM230100 00000KT P6SM SKC
     FM231400 05006KT P6SM SKC
     FM231700 09006KT P6SM SKC=



Latest METAR

794
SAUS70 KWBC 230800 RRB
MTRGSP
METAR KGSP 230753Z AUTO 00000KT 10SM CLR 12/08 A3030 RMK AO2 SLP254
T01220078


USA.gov is the U.S. government's official web portal to all federal, state and local government web resources and services.